createdAt,value
2023-12-24T00:00:28.228Z,1.00
2023-12-24T00:05:31.395Z,1.73
2023-12-24T00:10:34.570Z,1.42
2023-12-24T00:15:37.739Z,1.55
2023-12-24T00:20:41.232Z,1.42
2023-12-24T00:25:44.421Z,1.63
2023-12-24T00:30:47.780Z,1.73
2023-12-24T00:35:51.232Z,1.70
2023-12-24T00:40:54.420Z,1.50
2023-12-24T00:45:57.434Z,1.83
2023-12-24T00:51:00.550Z,1.50
2023-12-24T00:56:03.805Z,1.40
2023-12-24T01:01:07.044Z,1.25
2023-12-24T01:06:10.569Z,1.50
2023-12-24T01:11:14.363Z,1.20
2023-12-24T01:16:18.016Z,1.20
2023-12-24T01:21:21.174Z,1.25
2023-12-24T01:26:24.244Z,1.15
2023-12-24T01:31:28.547Z,1.45
2023-12-24T01:36:50.116Z,1.52
2023-12-24T01:41:53.398Z,1.23
2023-12-24T01:46:56.632Z,1.20
2023-12-24T01:52:00.380Z,1.35
2023-12-24T01:57:03.931Z,1.13
2023-12-24T02:02:07.161Z,1.42
2023-12-24T02:07:12.787Z,1.65
2023-12-24T02:12:17.749Z,1.95
2023-12-24T02:17:23.568Z,1.80
2023-12-24T02:22:27.264Z,2.10
2023-12-24T02:27:36.300Z,1.88
2023-12-24T02:32:42.379Z,1.75
2023-12-24T02:37:45.933Z,1.65
2023-12-24T02:42:49.358Z,1.77
2023-12-24T02:47:52.833Z,1.55
2023-12-24T02:52:56.076Z,1.80
2023-12-24T02:58:00.350Z,1.85
2023-12-24T03:03:03.584Z,1.73
2023-12-24T03:08:06.865Z,1.88
2023-12-24T03:13:09.937Z,1.75
2023-12-24T03:18:13.308Z,1.65
2023-12-24T03:23:16.597Z,1.88
2023-12-24T03:28:19.613Z,2.00
2023-12-24T03:33:23.655Z,1.30
2023-12-24T03:38:26.887Z,2.22
2023-12-24T03:43:31.125Z,1.90
2023-12-24T03:48:37.453Z,1.92
2023-12-24T03:53:40.537Z,2.20
2023-12-24T03:58:43.620Z,2.08
2023-12-24T04:03:49.548Z,2.42
2023-12-24T04:08:54.895Z,2.30
2023-12-24T04:14:00.080Z,1.88
2023-12-24T04:19:03.748Z,1.70
2023-12-24T04:24:07.453Z,2.88
2023-12-24T04:29:10.666Z,2.20
2023-12-24T04:34:14.930Z,2.20
2023-12-24T04:39:19.044Z,2.30
2023-12-24T04:44:22.263Z,2.22
2023-12-24T04:49:25.531Z,2.17
2023-12-24T04:54:29.196Z,2.50
2023-12-24T04:59:32.439Z,2.28
2023-12-24T05:04:36.610Z,2.30
2023-12-24T05:09:44.975Z,2.30
2023-12-24T05:14:49.403Z,1.98
2023-12-24T05:19:53.001Z,2.00
2023-12-24T05:24:56.284Z,2.00
2023-12-24T05:29:59.995Z,1.63
2023-12-24T05:35:03.338Z,1.80
2023-12-24T05:40:07.195Z,2.20
2023-12-24T05:45:13.231Z,1.77
2023-12-24T05:50:16.351Z,1.52
2023-12-24T05:55:19.384Z,1.58
2023-12-24T06:00:22.533Z,1.85
2023-12-24T06:05:25.715Z,1.17
2023-12-24T06:10:28.808Z,1.70
2023-12-24T06:15:32.443Z,2.05
2023-12-24T06:20:38.121Z,1.92
2023-12-24T06:25:41.656Z,1.60
2023-12-24T06:30:44.949Z,2.38
2023-12-24T06:35:48.074Z,1.80
2023-12-24T06:40:51.203Z,2.42
2023-12-24T06:45:54.408Z,2.72
2023-12-24T06:50:57.554Z,3.15
2023-12-24T06:56:00.638Z,2.20
2023-12-24T07:01:04.094Z,2.40
2023-12-24T07:06:07.580Z,2.22
2023-12-24T07:11:11.255Z,3.28
2023-12-24T07:16:14.362Z,2.75
2023-12-24T07:21:18.066Z,2.10
2023-12-24T07:26:22.548Z,3.42
2023-12-24T07:31:25.701Z,3.58
2023-12-24T07:36:28.852Z,3.20
2023-12-24T07:41:32.865Z,3.28
2023-12-24T07:46:38.404Z,2.78
2023-12-24T07:51:42.602Z,2.50
2023-12-24T07:56:45.704Z,3.63
2023-12-24T08:01:48.794Z,3.47
2023-12-24T08:06:55.770Z,4.03
2023-12-24T08:12:00.020Z,3.03
2023-12-24T08:17:03.249Z,1.88
2023-12-24T08:22:06.516Z,4.65
2023-12-24T08:27:09.851Z,4.03
2023-12-24T08:32:13.071Z,4.15
2023-12-24T08:37:16.513Z,4.43
2023-12-24T08:42:19.670Z,4.22
2023-12-24T08:47:22.972Z,3.47
2023-12-24T08:52:26.900Z,4.32
2023-12-24T08:57:30.189Z,3.83
2023-12-24T09:02:33.401Z,5.65
2023-12-24T09:07:37.028Z,5.90
2023-12-24T09:12:40.019Z,3.67
2023-12-24T09:17:43.374Z,4.72
2023-12-24T09:22:47.025Z,4.78
2023-12-24T09:27:50.259Z,4.47
2023-12-24T09:32:53.710Z,2.88
2023-12-24T09:37:57.193Z,5.20
2023-12-24T09:43:01.626Z,3.20
2023-12-24T09:48:05.367Z,4.07
2023-12-24T09:53:08.851Z,3.00
2023-12-24T09:58:12.058Z,3.80
2023-12-24T10:03:15.214Z,4.28
2023-12-24T10:08:19.255Z,3.05
2023-12-24T10:13:23.681Z,4.38
2023-12-24T10:18:26.997Z,2.80
2023-12-24T10:23:31.267Z,2.42
2023-12-24T10:28:35.240Z,4.78
2023-12-24T10:33:39.608Z,4.40
2023-12-24T10:38:43.476Z,3.08
2023-12-24T10:43:46.965Z,5.13
2023-12-24T10:48:50.717Z,4.18
2023-12-24T10:53:55.114Z,4.00
2023-12-24T10:59:04.988Z,5.53
2023-12-24T11:04:08.209Z,3.40
2023-12-24T11:09:17.467Z,4.20
2023-12-24T11:14:47.342Z,4.57
2023-12-24T11:19:50.730Z,5.13
2023-12-24T11:25:17.990Z,4.90
2023-12-24T11:30:22.001Z,4.07
2023-12-24T11:35:53.662Z,3.83
2023-12-24T11:41:06.499Z,2.45
2023-12-24T11:46:13.389Z,4.05
2023-12-24T11:51:16.730Z,4.75
2023-12-24T11:56:21.606Z,4.20
2023-12-24T12:01:27.170Z,5.00
2023-12-24T12:06:36.497Z,6.13
2023-12-24T12:11:42.726Z,6.10
2023-12-24T12:16:46.153Z,6.60
2023-12-24T12:21:49.553Z,6.70
2023-12-24T12:26:53.089Z,6.60
2023-12-24T12:31:59.459Z,6.60
2023-12-24T12:37:02.530Z,6.82
2023-12-24T12:42:06.185Z,6.35
2023-12-24T12:47:09.272Z,7.50
2023-12-24T12:52:12.649Z,6.53
2023-12-24T12:57:33.533Z,6.68
2023-12-24T13:02:43.513Z,6.22
2023-12-24T13:07:47.149Z,5.97
2023-12-24T13:13:12.091Z,6.57
2023-12-24T13:18:20.047Z,6.53
2023-12-24T13:23:25.428Z,5.03
2023-12-24T13:28:29.989Z,5.80
2023-12-24T13:33:34.082Z,6.60
2023-12-24T13:38:37.495Z,6.43
2023-12-24T13:43:41.317Z,5.82
2023-12-24T13:48:44.586Z,5.68
2023-12-24T13:53:49.303Z,7.20
2023-12-24T13:58:52.382Z,5.70
2023-12-24T14:03:55.645Z,5.70
2023-12-24T14:08:59.783Z,5.13
2023-12-24T14:14:03.008Z,4.38
2023-12-24T14:19:07.579Z,4.63
2023-12-24T14:24:10.688Z,3.75
2023-12-24T14:29:14.361Z,5.07
2023-12-24T14:34:36.874Z,5.15
2023-12-24T14:39:40.227Z,3.15
2023-12-24T14:44:44.855Z,7.70
2023-12-24T14:49:48.424Z,3.95
2023-12-24T14:54:51.685Z,4.68
2023-12-24T14:59:58.525Z,5.72
2023-12-24T15:05:02.221Z,4.43
2023-12-24T15:10:08.583Z,6.57
2023-12-24T15:15:12.801Z,6.35
2023-12-24T15:20:16.080Z,4.25
2023-12-24T15:25:19.913Z,4.22
2023-12-24T15:30:23.058Z,4.57
2023-12-24T15:35:26.426Z,6.03
2023-12-24T15:40:29.466Z,5.80
2023-12-24T15:45:36.734Z,4.75
2023-12-24T15:50:42.341Z,4.38
2023-12-24T15:56:04.235Z,6.22
2023-12-24T16:01:07.710Z,3.85
2023-12-24T16:06:11.284Z,3.83
2023-12-24T16:11:14.584Z,6.72
2023-12-24T16:16:17.911Z,4.93
2023-12-24T16:21:20.972Z,3.90
2023-12-24T16:26:24.230Z,5.00
2023-12-24T16:31:28.080Z,5.18
2023-12-24T16:36:31.427Z,5.15
2023-12-24T16:41:45.710Z,5.63
2023-12-24T16:46:49.051Z,5.75
2023-12-24T16:51:52.309Z,4.80
2023-12-24T16:56:55.528Z,5.30
2023-12-24T17:01:58.564Z,6.70
2023-12-24T17:07:01.838Z,5.10
2023-12-24T17:12:06.559Z,4.05
2023-12-24T17:17:11.364Z,4.65
2023-12-24T17:22:14.684Z,4.35
2023-12-24T17:27:18.122Z,3.58
2023-12-24T17:32:21.790Z,3.65
2023-12-24T17:37:25.050Z,3.95
2023-12-24T17:42:28.144Z,3.80
2023-12-24T17:47:32.032Z,3.47
2023-12-24T17:52:35.282Z,3.42
2023-12-24T17:57:38.590Z,3.22
2023-12-24T18:02:41.680Z,3.35
2023-12-24T18:07:45.248Z,3.78
2023-12-24T18:12:50.087Z,3.72
2023-12-24T18:17:53.291Z,3.92
2023-12-24T18:22:56.641Z,4.60
2023-12-24T18:28:00.508Z,3.47
2023-12-24T18:33:04.378Z,2.58
2023-12-24T18:38:07.779Z,3.90
2023-12-24T18:43:10.945Z,2.30
2023-12-24T18:48:14.472Z,3.05
2023-12-24T18:53:17.814Z,3.10
2023-12-24T18:58:21.225Z,3.72
2023-12-24T19:03:24.455Z,3.30
2023-12-24T19:08:27.992Z,3.40
2023-12-24T19:13:31.077Z,3.95
2023-12-24T19:18:34.354Z,2.17
2023-12-24T19:23:37.764Z,4.53
2023-12-24T19:28:42.294Z,3.38
2023-12-24T19:33:45.937Z,4.22
2023-12-24T19:38:49.361Z,3.60
2023-12-24T19:43:52.533Z,2.45
2023-12-24T19:48:55.837Z,3.60
2023-12-24T19:53:59.064Z,3.90
2023-12-24T19:59:02.349Z,2.28
2023-12-24T20:04:06.730Z,3.35
2023-12-24T20:09:10.943Z,3.28
2023-12-24T20:14:14.193Z,3.63
2023-12-24T20:19:17.358Z,5.05
2023-12-24T20:24:20.839Z,3.28
2023-12-24T20:29:42.528Z,4.43
2023-12-24T20:34:45.964Z,4.20
2023-12-24T20:39:49.099Z,4.20
2023-12-24T20:44:55.092Z,3.97
2023-12-24T20:50:00.795Z,3.50
2023-12-24T20:55:04.261Z,4.18
2023-12-24T21:00:08.713Z,4.55
2023-12-24T21:05:16.480Z,3.20
2023-12-24T21:10:19.910Z,3.15
2023-12-24T21:15:23.137Z,3.67
2023-12-24T21:20:26.344Z,2.80
2023-12-24T21:25:29.891Z,4.90
2023-12-24T21:30:33.214Z,4.40
2023-12-24T21:35:38.567Z,3.42
2023-12-24T21:40:42.167Z,4.43
2023-12-24T21:45:45.803Z,4.53
2023-12-24T21:50:49.177Z,5.07
2023-12-24T21:55:52.330Z,3.85
2023-12-24T22:00:55.446Z,3.95
2023-12-24T22:06:01.134Z,3.90
2023-12-24T22:11:04.761Z,3.75
2023-12-24T22:16:20.065Z,3.63
2023-12-24T22:21:53.223Z,3.25
2023-12-24T22:26:56.676Z,4.35
2023-12-24T22:31:59.867Z,3.17
2023-12-24T22:37:03.463Z,4.38
2023-12-24T22:42:06.774Z,4.10
2023-12-24T22:47:09.869Z,4.05
2023-12-24T22:52:13.874Z,4.30
2023-12-24T22:57:17.104Z,2.90
2023-12-24T23:02:20.354Z,5.68
2023-12-24T23:07:23.558Z,3.40
2023-12-24T23:12:26.840Z,2.67
2023-12-24T23:17:30.049Z,5.20
2023-12-24T23:22:33.370Z,4.75
2023-12-24T23:27:36.517Z,3.22
2023-12-24T23:32:39.859Z,2.70
2023-12-24T23:37:43.402Z,2.78
2023-12-24T23:42:46.536Z,3.33
2023-12-24T23:47:49.591Z,3.58
2023-12-24T23:52:52.748Z,3.72
2023-12-24T23:57:55.990Z,3.85
